Flight Briefing for CPX263

Departure Arrival
Washington Dulles International Airport (KIAD)
Click to view FAA NOTAMS
General Edward Lawrence Logan International Airport (KBOS)
Click to view FAA NOTAMS
Departure Time Arrival Time
N/A N/A
Aircraft Distance
B767-300BDSF 359nm
Departure METAR Arrival METAR
KIAD 250252Z 00000KT 10SM FEW085 19/12 A3010 RMK AO2 SLP191 T01890117 53011 KBOS 250254Z 09003KT 10SM SCT055 12/06 A3012 RMK AO2 SLP199 T01220056 50023 $
Suggested Route
JCOBY3 SWANN BROSS J42 RBV J222 JFK ROBUC3


View recent IFR Routes data
Notes



Charts and Procedures

Charts for KIAD
No chart available
Charts for KBOS
No chart available

Windy.com Weather Map